createdAt,value
2022-10-11T00:00:16.957Z,5.80
2022-10-11T00:02:44.082Z,5.80
2022-10-11T00:05:11.457Z,5.70
2022-10-11T00:07:38.709Z,5.70
2022-10-11T00:10:07.724Z,5.70
2022-10-11T00:12:35.738Z,5.80
2022-10-11T00:15:05.933Z,5.70
2022-10-11T00:17:33.381Z,5.70
2022-10-11T00:20:00.573Z,5.70
2022-10-11T00:22:27.505Z,5.80
2022-10-11T00:24:54.448Z,5.80
2022-10-11T00:27:21.397Z,5.90
2022-10-11T00:29:48.460Z,5.90
2022-10-11T00:32:15.551Z,6.00
2022-10-11T00:34:42.701Z,6.00
2022-10-11T00:37:09.634Z,6.10
2022-10-11T00:39:36.544Z,6.10
2022-10-11T00:42:04.088Z,6.10
2022-10-11T00:44:33.224Z,6.00
2022-10-11T00:47:06.620Z,6.00
2022-10-11T00:49:50.617Z,5.90
2022-10-11T00:52:31.814Z,5.90
2022-10-11T00:55:08.084Z,5.90
2022-10-11T00:57:40.203Z,5.80
2022-10-11T01:00:10.869Z,5.80
2022-10-11T01:02:39.381Z,5.80
2022-10-11T01:05:28.031Z,5.80
2022-10-11T01:07:56.243Z,5.80
2022-10-11T01:10:23.211Z,5.80
2022-10-11T01:13:13.309Z,5.70
2022-10-11T01:16:09.399Z,5.80
2022-10-11T01:19:05.320Z,5.80
2022-10-11T01:22:32.362Z,5.70
2022-10-11T01:25:32.738Z,5.70
2022-10-11T01:28:35.127Z,5.60
2022-10-11T01:31:16.064Z,5.60
2022-10-11T01:33:56.236Z,5.60
2022-10-11T01:36:33.606Z,5.50
2022-10-11T01:39:13.239Z,5.50
2022-10-11T01:41:46.369Z,5.40
2022-10-11T01:44:14.424Z,5.40
2022-10-11T01:46:41.649Z,5.40
2022-10-11T01:49:09.318Z,5.40
2022-10-11T01:51:45.229Z,5.40
2022-10-11T01:55:07.669Z,5.40
2022-10-11T01:57:55.189Z,5.30
2022-10-11T02:00:32.058Z,5.30
2022-10-11T02:03:17.176Z,5.30
2022-10-11T02:06:04.645Z,5.30
2022-10-11T02:09:15.528Z,5.30
2022-10-11T02:11:43.325Z,5.40
2022-10-11T02:14:16.334Z,5.40
2022-10-11T02:16:58.079Z,5.40
2022-10-11T02:19:32.604Z,5.30
2022-10-11T02:22:07.235Z,5.30
2022-10-11T02:24:39.684Z,5.30
2022-10-11T02:27:07.837Z,5.20
2022-10-11T02:29:39.351Z,5.20
2022-10-11T02:32:08.320Z,5.10
2022-10-11T02:34:47.398Z,5.10
2022-10-11T02:37:31.143Z,5.10
2022-10-11T02:40:25.603Z,5.10
2022-10-11T02:43:18.123Z,5.10
2022-10-11T02:46:01.343Z,5.10
2022-10-11T02:48:29.420Z,5.00
2022-10-11T02:50:59.634Z,5.00
2022-10-11T02:53:27.165Z,5.00
2022-10-11T02:55:55.893Z,4.90
2022-10-11T02:58:24.391Z,4.90
2022-10-11T03:00:51.804Z,4.90
2022-10-11T03:03:18.735Z,4.90
2022-10-11T03:05:45.670Z,4.90
2022-10-11T03:08:16.119Z,4.90
2022-10-11T03:10:43.818Z,4.90
2022-10-11T03:13:12.875Z,4.90
2022-10-11T03:15:42.962Z,4.80
2022-10-11T03:18:09.885Z,4.80
2022-10-11T03:20:36.801Z,4.80
2022-10-11T03:23:03.703Z,4.70
2022-10-11T03:25:30.670Z,4.70
2022-10-11T03:27:57.784Z,4.70
2022-10-11T03:30:24.848Z,4.60
2022-10-11T03:32:51.809Z,4.60
2022-10-11T03:35:18.978Z,4.60
2022-10-11T03:37:46.210Z,4.50
2022-10-11T03:40:14.080Z,4.50
2022-10-11T03:42:41.117Z,4.50
2022-10-11T03:45:09.775Z,4.60
2022-10-11T03:47:38.884Z,4.60
2022-10-11T03:50:08.823Z,4.60
2022-10-11T03:52:36.368Z,4.50
2022-10-11T03:55:03.860Z,4.50
2022-10-11T03:57:30.823Z,4.40
2022-10-11T03:59:57.824Z,4.40
2022-10-11T04:02:25.331Z,4.40
2022-10-11T04:04:52.433Z,4.50
2022-10-11T04:07:19.589Z,4.50
2022-10-11T04:09:46.639Z,4.50
2022-10-11T04:12:13.585Z,4.40
2022-10-11T04:14:40.597Z,4.40
2022-10-11T04:17:07.653Z,4.40
2022-10-11T04:19:37.076Z,4.40
2022-10-11T04:22:05.551Z,4.40
2022-10-11T04:24:32.729Z,4.40
2022-10-11T04:26:59.962Z,4.40
2022-10-11T04:29:32.403Z,4.30
2022-10-11T04:32:00.122Z,4.40
2022-10-11T04:34:27.288Z,4.50
2022-10-11T04:36:54.208Z,4.50
2022-10-11T04:39:21.197Z,4.40
2022-10-11T04:41:48.336Z,4.30
2022-10-11T04:44:15.484Z,4.30
2022-10-11T04:46:42.490Z,4.30
2022-10-11T04:49:09.509Z,4.30
2022-10-11T04:51:36.653Z,4.30
2022-10-11T04:54:05.209Z,4.30
2022-10-11T04:56:32.280Z,4.40
2022-10-11T04:58:59.331Z,4.40
2022-10-11T05:01:26.445Z,4.30
2022-10-11T05:03:53.509Z,4.30
2022-10-11T05:06:20.591Z,4.40
2022-10-11T05:08:47.729Z,4.40
2022-10-11T05:11:17.222Z,4.40
2022-10-11T05:13:45.994Z,4.30
2022-10-11T05:16:16.735Z,4.30
2022-10-11T05:18:44.434Z,4.30
2022-10-11T05:21:26.597Z,4.30
2022-10-11T05:23:58.746Z,4.30
2022-10-11T05:26:28.096Z,4.30
2022-10-11T05:28:55.573Z,4.40
2022-10-11T05:31:23.081Z,4.50
2022-10-11T05:33:50.939Z,4.50
2022-10-11T05:36:17.972Z,4.50
2022-10-11T05:38:45.101Z,4.40
2022-10-11T05:41:16.031Z,4.50
2022-10-11T05:43:44.660Z,4.50
2022-10-11T05:46:12.698Z,4.40
2022-10-11T05:48:40.313Z,4.40
2022-10-11T05:51:09.922Z,4.40
2022-10-11T05:53:38.641Z,4.40
2022-10-11T05:56:17.360Z,4.40
2022-10-11T05:58:44.385Z,4.50
2022-10-11T06:01:37.968Z,4.70
2022-10-11T06:04:05.308Z,4.70
2022-10-11T06:06:32.418Z,4.70
2022-10-11T06:08:59.341Z,4.70
2022-10-11T06:11:27.894Z,4.60
2022-10-11T06:13:57.845Z,4.60
2022-10-11T06:16:25.998Z,4.60
2022-10-11T06:18:54.875Z,4.70
2022-10-11T06:21:22.748Z,4.80
2022-10-11T06:23:52.336Z,4.80
2022-10-11T06:26:21.708Z,4.90
2022-10-11T06:28:48.868Z,4.90
2022-10-11T06:31:15.877Z,5.00
2022-10-11T06:33:42.826Z,5.00
2022-10-11T06:36:15.469Z,5.00
2022-10-11T06:38:45.183Z,5.00
2022-10-11T06:41:26.385Z,5.00
2022-10-11T06:43:53.376Z,5.10
2022-10-11T06:46:23.246Z,5.10
2022-10-11T06:48:50.781Z,5.10
2022-10-11T06:51:21.110Z,5.30
2022-10-11T06:53:55.379Z,5.40
2022-10-11T06:56:22.759Z,5.40
2022-10-11T06:58:51.141Z,5.50
2022-10-11T07:01:21.391Z,5.50
2022-10-11T07:03:49.309Z,5.60
2022-10-11T07:06:19.725Z,5.70
2022-10-11T07:08:47.599Z,5.80
2022-10-11T07:11:26.430Z,5.80
2022-10-11T07:13:57.039Z,5.90
2022-10-11T07:16:25.146Z,5.90
2022-10-11T07:19:00.212Z,6.00
2022-10-11T07:21:29.961Z,6.10
2022-10-11T07:23:57.045Z,6.10
2022-10-11T07:26:24.011Z,6.20
2022-10-11T07:28:51.404Z,6.20
2022-10-11T07:31:21.853Z,6.20
2022-10-11T07:33:49.533Z,6.30
2022-10-11T07:36:17.169Z,6.40
2022-10-11T07:38:46.890Z,6.40
2022-10-11T07:41:14.530Z,6.50
2022-10-11T07:43:43.511Z,6.50
2022-10-11T07:46:11.234Z,6.60
2022-10-11T07:48:40.308Z,6.60
2022-10-11T07:51:11.618Z,6.70
2022-10-11T07:53:55.389Z,6.80
2022-10-11T07:56:28.884Z,6.90
2022-10-11T07:59:03.399Z,6.90
2022-10-11T08:01:32.244Z,7.10
2022-10-11T08:03:59.630Z,7.20
2022-10-11T08:06:31.682Z,7.40
2022-10-11T08:09:00.955Z,7.50
2022-10-11T08:11:37.233Z,7.70
2022-10-11T08:14:08.906Z,7.90
2022-10-11T08:16:38.372Z,8.10
2022-10-11T08:19:06.865Z,8.30
2022-10-11T08:21:34.775Z,8.50
2022-10-11T08:24:04.025Z,8.60
2022-10-11T08:26:32.693Z,8.70
2022-10-11T08:29:04.455Z,8.80
2022-10-11T08:31:34.262Z,9.00
2022-10-11T08:34:01.373Z,9.10
2022-10-11T08:36:28.446Z,9.30
2022-10-11T08:38:55.560Z,9.50
2022-10-11T08:41:46.188Z,9.70
2022-10-11T08:45:05.426Z,9.90
2022-10-11T08:47:28.961Z,10.20
2022-10-11T08:49:56.670Z,10.50
2022-10-11T08:52:56.782Z,10.60
2022-10-11T08:55:38.302Z,10.80
2022-10-11T08:58:05.941Z,10.90
2022-10-11T09:00:36.488Z,11.00
2022-10-11T09:03:37.069Z,11.20
2022-10-11T09:06:24.401Z,11.30
2022-10-11T09:09:06.171Z,11.50
2022-10-11T09:11:48.152Z,11.60
2022-10-11T09:14:52.113Z,11.50
2022-10-11T09:17:30.908Z,11.70
2022-10-11T09:20:26.215Z,11.90
2022-10-11T09:23:07.298Z,12.00
2022-10-11T09:25:46.819Z,12.10
2022-10-11T09:28:49.119Z,12.10
2022-10-11T09:31:16.879Z,12.20
2022-10-11T09:33:49.816Z,12.20
2022-10-11T09:36:30.231Z,12.20
2022-10-11T09:39:24.878Z,12.40
2022-10-11T09:42:11.971Z,12.40
2022-10-11T09:44:57.530Z,12.70
2022-10-11T09:47:31.658Z,13.00
2022-10-11T09:50:06.687Z,13.10
2022-10-11T09:52:34.197Z,13.20
2022-10-11T09:55:02.750Z,13.40
2022-10-11T09:57:39.533Z,13.60
2022-10-11T10:00:24.597Z,13.80
2022-10-11T10:02:53.333Z,14.20
2022-10-11T10:05:32.338Z,14.30
2022-10-11T10:08:05.318Z,14.30
2022-10-11T10:10:43.696Z,14.20
2022-10-11T10:13:51.314Z,14.30
2022-10-11T10:16:37.197Z,14.20
2022-10-11T10:19:15.517Z,14.10
2022-10-11T10:21:52.602Z,14.20
2022-10-11T10:24:50.964Z,14.20
2022-10-11T10:27:24.319Z,14.30
2022-10-11T10:30:16.190Z,14.70
2022-10-11T10:32:48.772Z,14.80
2022-10-11T10:35:36.181Z,14.90
2022-10-11T10:38:25.539Z,15.00
2022-10-11T10:41:01.775Z,15.10
2022-10-11T10:43:34.572Z,15.00
2022-10-11T10:46:17.894Z,15.00
2022-10-11T10:52:24.643Z,15.10
2022-10-11T10:55:13.054Z,15.20
2022-10-11T10:58:20.540Z,15.40
2022-10-11T11:01:00.144Z,15.50
2022-10-11T11:03:58.578Z,15.70
2022-10-11T11:06:57.985Z,15.80
2022-10-11T11:09:50.205Z,15.80
2022-10-11T11:12:37.647Z,16.00
2022-10-11T11:15:32.626Z,16.20
2022-10-11T11:18:29.500Z,16.40
2022-10-11T11:21:29.432Z,16.60
2022-10-11T11:24:25.231Z,16.80
2022-10-11T11:27:04.119Z,16.60
2022-10-11T11:29:49.811Z,16.30
2022-10-11T11:32:49.810Z,16.10
2022-10-11T11:35:43.482Z,16.10
2022-10-11T11:38:24.909Z,16.20
2022-10-11T11:41:02.412Z,16.20
2022-10-11T11:43:38.478Z,15.90
2022-10-11T11:46:25.410Z,15.90
2022-10-11T11:48:55.892Z,16.00
2022-10-11T11:51:32.814Z,16.20
2022-10-11T11:54:28.157Z,16.60
2022-10-11T11:57:43.258Z,16.80
2022-10-11T12:00:21.450Z,16.70
2022-10-11T12:03:00.620Z,16.40
2022-10-11T12:05:35.038Z,16.70
2022-10-11T12:08:31.569Z,16.80
2022-10-11T12:11:02.796Z,16.50
2022-10-11T12:13:40.680Z,16.20
2022-10-11T12:16:12.471Z,16.20
2022-10-11T12:18:57.575Z,16.30
2022-10-11T12:21:34.904Z,16.50
2022-10-11T12:24:20.356Z,16.70
2022-10-11T12:26:49.505Z,17.00
2022-10-11T12:29:42.856Z,17.30
2022-10-11T12:32:11.121Z,17.50
2022-10-11T12:34:44.190Z,17.50
2022-10-11T12:37:20.276Z,17.60
2022-10-11T12:39:55.040Z,17.60
2022-10-11T12:42:29.132Z,17.40
2022-10-11T12:45:11.950Z,17.60
2022-10-11T12:47:48.580Z,17.80
2022-10-11T12:50:27.189Z,18.00
2022-10-11T12:53:17.728Z,18.10
2022-10-11T12:56:47.398Z,18.10
2022-10-11T12:59:22.113Z,17.90
2022-10-11T13:01:55.771Z,17.60
2022-10-11T13:04:29.189Z,17.50
2022-10-11T13:07:06.798Z,17.10
2022-10-11T13:09:44.144Z,16.70
2022-10-11T13:12:18.632Z,16.30
2022-10-11T13:14:56.581Z,16.00
2022-10-11T13:17:38.215Z,15.70
2022-10-11T13:20:19.132Z,15.50
2022-10-11T13:22:53.139Z,15.40
2022-10-11T13:25:27.880Z,15.30
2022-10-11T13:27:59.380Z,15.30
2022-10-11T13:30:31.859Z,15.30
2022-10-11T13:33:01.070Z,15.10
2022-10-11T13:35:34.348Z,15.00
2022-10-11T13:38:02.361Z,15.00
2022-10-11T13:40:30.153Z,14.90
2022-10-11T13:42:57.540Z,14.80
2022-10-11T13:45:27.590Z,14.80
2022-10-11T13:47:55.354Z,14.70
2022-10-11T13:50:34.951Z,14.60
2022-10-11T13:53:09.805Z,14.60
2022-10-11T13:55:51.040Z,14.50
2022-10-11T13:58:35.367Z,14.50
2022-10-11T14:01:27.864Z,14.40
2022-10-11T14:04:05.731Z,14.40
2022-10-11T14:07:02.653Z,14.30
2022-10-11T14:09:37.028Z,14.20
2022-10-11T14:12:31.861Z,14.20
2022-10-11T14:15:02.685Z,14.20
2022-10-11T14:17:47.935Z,14.50
2022-10-11T14:20:34.121Z,14.70
2022-10-11T14:23:01.353Z,14.90
2022-10-11T14:25:28.467Z,15.20
2022-10-11T14:27:55.419Z,15.40
2022-10-11T14:30:27.102Z,15.40
2022-10-11T14:32:58.615Z,15.60
2022-10-11T14:35:31.738Z,15.70
2022-10-11T14:37:59.133Z,15.80
2022-10-11T14:40:29.820Z,15.80
2022-10-11T14:42:57.013Z,15.90
2022-10-11T14:45:24.375Z,16.00
2022-10-11T14:47:51.900Z,16.00
2022-10-11T14:50:42.257Z,15.90
2022-10-11T14:53:11.594Z,15.90
2022-10-11T14:55:40.556Z,15.70
2022-10-11T14:58:09.657Z,15.60
2022-10-11T15:00:37.219Z,15.50
2022-10-11T15:03:07.086Z,15.50
2022-10-11T15:05:35.037Z,15.40
2022-10-11T15:08:04.820Z,15.40
2022-10-11T15:10:39.052Z,15.20
2022-10-11T15:13:07.549Z,15.10
2022-10-11T15:15:36.894Z,15.10
2022-10-11T15:18:06.930Z,15.00
2022-10-11T15:20:41.457Z,14.90
2022-10-11T15:23:09.917Z,14.80
2022-10-11T15:25:38.694Z,14.80
2022-10-11T15:28:07.714Z,14.70
2022-10-11T15:30:41.419Z,14.60
2022-10-11T15:33:09.134Z,14.60
2022-10-11T15:35:36.246Z,14.60
2022-10-11T15:38:03.509Z,14.50
2022-10-11T15:40:35.367Z,14.40
2022-10-11T15:43:03.711Z,14.30
2022-10-11T15:45:31.286Z,14.30
2022-10-11T15:47:59.258Z,14.20
2022-10-11T15:50:37.228Z,14.20
2022-10-11T15:53:12.608Z,14.10
2022-10-11T15:55:51.914Z,14.00
2022-10-11T15:58:29.657Z,13.90
2022-10-11T16:01:05.256Z,13.80
2022-10-11T16:03:33.626Z,13.70
2022-10-11T16:06:05.153Z,13.60
2022-10-11T16:08:34.447Z,13.50
2022-10-11T16:11:02.207Z,13.40
2022-10-11T16:13:29.238Z,13.30
2022-10-11T16:15:56.326Z,13.20
2022-10-11T16:18:23.903Z,13.10
2022-10-11T16:20:52.404Z,13.00
2022-10-11T16:23:21.852Z,12.90
2022-10-11T16:26:01.402Z,12.80
2022-10-11T16:28:29.142Z,12.70
2022-10-11T16:30:56.757Z,12.50
2022-10-11T16:33:24.484Z,12.40
2022-10-11T16:35:52.013Z,12.20
2022-10-11T16:38:19.070Z,12.10
2022-10-11T16:40:46.363Z,11.90
2022-10-11T16:43:13.561Z,11.70
2022-10-11T16:45:40.682Z,11.70
2022-10-11T16:48:07.765Z,11.50
2022-10-11T16:50:39.316Z,11.40
2022-10-11T16:53:06.946Z,11.30
2022-10-11T16:55:33.997Z,11.20
2022-10-11T16:58:00.949Z,11.10
2022-10-11T17:00:27.961Z,11.00
2022-10-11T17:02:55.172Z,10.80
2022-10-11T17:05:22.410Z,10.80
2022-10-11T17:07:49.448Z,10.70
2022-10-11T17:10:16.616Z,10.60
2022-10-11T17:12:47.746Z,10.60
2022-10-11T17:15:16.944Z,10.50
2022-10-11T17:17:44.079Z,10.40
2022-10-11T17:20:11.275Z,10.30
2022-10-11T17:22:38.295Z,10.20
2022-10-11T17:25:05.839Z,10.10
2022-10-11T17:27:32.980Z,10.10
2022-10-11T17:30:00.036Z,10.00
2022-10-11T17:32:27.096Z,9.90
2022-10-11T17:34:54.175Z,9.80
2022-10-11T17:37:21.216Z,9.80
2022-10-11T17:39:48.318Z,9.70
2022-10-11T17:42:15.261Z,9.70
2022-10-11T17:44:42.333Z,9.60
2022-10-11T17:47:09.356Z,9.60
2022-10-11T17:49:36.303Z,9.50
2022-10-11T17:52:03.488Z,9.40
2022-10-11T17:54:30.511Z,9.30
2022-10-11T17:56:58.193Z,9.30
2022-10-11T17:59:28.630Z,9.20
2022-10-11T18:01:55.830Z,9.20
2022-10-11T18:04:26.719Z,9.10
2022-10-11T18:06:54.220Z,9.10
2022-10-11T18:09:22.741Z,9.00
2022-10-11T18:11:50.763Z,9.00
2022-10-11T18:14:17.985Z,9.00
2022-10-11T18:16:45.374Z,9.00
2022-10-11T18:19:13.637Z,8.90
2022-10-11T18:21:41.393Z,8.80
2022-10-11T18:24:14.863Z,8.80
2022-10-11T18:26:43.634Z,8.70
2022-10-11T18:29:12.413Z,8.70
2022-10-11T18:31:40.701Z,8.70
2022-10-11T18:34:10.972Z,8.60
2022-10-11T18:36:39.161Z,8.60
2022-10-11T18:39:11.427Z,8.60
2022-10-11T18:41:39.852Z,8.50
2022-10-11T18:44:09.269Z,8.50
2022-10-11T18:46:36.738Z,8.40
2022-10-11T18:49:04.279Z,8.30
2022-10-11T18:51:38.217Z,8.30
2022-10-11T18:54:07.022Z,8.30
2022-10-11T18:56:36.936Z,8.30
2022-10-11T18:59:05.444Z,8.20
2022-10-11T19:01:39.327Z,8.20
2022-10-11T19:04:09.317Z,8.10
2022-10-11T19:06:43.643Z,8.10
2022-10-11T19:09:17.597Z,8.00
2022-10-11T19:11:44.679Z,8.00
2022-10-11T19:14:15.162Z,7.90
2022-10-11T19:16:51.485Z,7.90
2022-10-11T19:19:23.837Z,7.80
2022-10-11T19:21:51.573Z,7.80
2022-10-11T19:24:22.832Z,7.80
2022-10-11T19:26:50.477Z,7.70
2022-10-11T19:29:22.139Z,7.70
2022-10-11T19:31:56.613Z,7.70
2022-10-11T19:34:29.036Z,7.70
2022-10-11T19:36:57.509Z,7.60
2022-10-11T19:39:25.464Z,7.60
2022-10-11T19:41:53.550Z,7.60
2022-10-11T19:44:20.724Z,7.60
2022-10-11T19:46:52.435Z,7.60
2022-10-11T19:49:25.159Z,7.50
2022-10-11T19:51:55.780Z,7.50
2022-10-11T19:54:23.131Z,7.50
2022-10-11T19:56:50.283Z,7.40
2022-10-11T19:59:17.983Z,7.40
2022-10-11T20:01:50.985Z,7.40
2022-10-11T20:04:39.994Z,7.30
2022-10-11T20:07:06.843Z,7.30
2022-10-11T20:09:33.810Z,7.30
2022-10-11T20:12:00.847Z,7.30
2022-10-11T20:14:27.916Z,7.20
2022-10-11T20:16:54.954Z,7.20
2022-10-11T20:19:26.270Z,7.20
2022-10-11T20:21:54.915Z,7.20
2022-10-11T20:24:21.941Z,7.20
2022-10-11T20:26:48.867Z,7.10
2022-10-11T20:29:16.178Z,7.10
2022-10-11T20:31:43.186Z,7.10
2022-10-11T20:34:11.072Z,7.00
2022-10-11T20:36:38.132Z,7.00
2022-10-11T20:39:06.653Z,7.00
2022-10-11T20:41:37.225Z,6.90
2022-10-11T20:44:05.435Z,6.90
2022-10-11T20:46:36.117Z,6.90
2022-10-11T20:49:06.998Z,6.90
2022-10-11T20:51:36.976Z,6.80
2022-10-11T20:54:04.699Z,6.80
2022-10-11T20:56:33.610Z,6.80
2022-10-11T20:59:01.338Z,6.80
2022-10-11T21:01:38.418Z,6.70
2022-10-11T21:04:07.114Z,6.70
2022-10-11T21:06:34.488Z,6.70
2022-10-11T21:09:01.787Z,6.70
2022-10-11T21:11:33.286Z,6.70
2022-10-11T21:14:03.478Z,6.60
2022-10-11T21:16:31.810Z,6.60
2022-10-11T21:19:00.992Z,6.60
2022-10-11T21:21:29.659Z,6.60
2022-10-11T21:23:59.386Z,6.60
2022-10-11T21:26:28.394Z,6.50
2022-10-11T21:28:55.598Z,6.50
2022-10-11T21:31:23.729Z,6.60
2022-10-11T21:33:50.980Z,6.50
2022-10-11T21:36:23.338Z,6.50
2022-10-11T21:38:51.536Z,6.50
2022-10-11T21:41:22.899Z,6.50
2022-10-11T21:43:50.184Z,6.50
2022-10-11T21:46:32.537Z,6.40
2022-10-11T21:49:09.369Z,6.40
2022-10-11T21:51:36.498Z,6.40
2022-10-11T21:54:03.632Z,6.40
2022-10-11T21:56:31.363Z,6.30
2022-10-11T21:58:58.454Z,6.30
2022-10-11T22:01:25.623Z,6.30
2022-10-11T22:03:55.690Z,6.30
2022-10-11T22:06:22.878Z,6.20
2022-10-11T22:08:50.363Z,6.20
2022-10-11T22:11:17.714Z,6.10
2022-10-11T22:13:45.010Z,6.10
2022-10-11T22:16:13.751Z,6.10
2022-10-11T22:18:41.693Z,6.00
2022-10-11T22:21:13.952Z,6.00
2022-10-11T22:23:43.021Z,6.00
2022-10-11T22:26:19.319Z,5.90
2022-10-11T22:28:46.881Z,5.90
2022-10-11T22:31:15.653Z,5.90
2022-10-11T22:36:17.166Z,5.80
2022-10-11T22:38:44.942Z,5.80
2022-10-11T22:41:12.337Z,5.80
2022-10-11T22:43:40.148Z,5.70
2022-10-11T22:46:07.618Z,5.70
2022-10-11T22:48:35.386Z,5.70
2022-10-11T22:51:02.841Z,5.60
2022-10-11T22:53:30.751Z,5.50
2022-10-11T22:55:57.840Z,5.50
2022-10-11T22:58:25.196Z,5.50
2022-10-11T23:00:52.219Z,5.50
2022-10-11T23:03:19.841Z,5.40
2022-10-11T23:05:57.690Z,5.40
2022-10-11T23:08:25.392Z,5.40
2022-10-11T23:10:53.028Z,5.40
2022-10-11T23:13:20.484Z,5.40
2022-10-11T23:15:47.641Z,5.40
2022-10-11T23:18:17.573Z,5.40
2022-10-11T23:20:44.991Z,5.50
2022-10-11T23:23:11.929Z,5.50
2022-10-11T23:25:39.280Z,5.50
2022-10-11T23:28:06.529Z,5.60
2022-10-11T23:30:35.117Z,5.60
2022-10-11T23:33:02.056Z,5.70
2022-10-11T23:35:28.956Z,5.70
2022-10-11T23:37:56.018Z,5.80
2022-10-11T23:40:23.074Z,5.90
2022-10-11T23:42:50.085Z,5.90
2022-10-11T23:45:17.033Z,6.00
2022-10-11T23:47:44.118Z,6.00
2022-10-11T23:50:11.140Z,6.10
2022-10-11T23:52:38.202Z,6.10
2022-10-11T23:55:05.654Z,6.10
2022-10-11T23:57:32.671Z,6.20
2022-10-11T23:59:59.741Z,6.20
